createdAt,value
2017-10-27T00:01:24.950Z,89.60
2017-10-27T00:03:52.393Z,89.60
2017-10-27T00:06:19.954Z,89.70
2017-10-27T00:08:47.381Z,90.00
2017-10-27T00:11:14.816Z,90.00
2017-10-27T00:13:42.261Z,90.10
2017-10-27T00:16:09.696Z,90.10
2017-10-27T00:18:37.496Z,90.20
2017-10-27T00:21:04.929Z,90.10
2017-10-27T00:23:32.468Z,90.10
2017-10-27T00:26:00.037Z,90.10
2017-10-27T00:28:27.477Z,90.20
2017-10-27T00:30:54.953Z,90.20
2017-10-27T00:33:22.421Z,90.20
2017-10-27T00:35:50.109Z,90.10
2017-10-27T00:38:18.313Z,90.10
2017-10-27T00:40:45.744Z,90.10
2017-10-27T00:43:13.960Z,90.00
2017-10-27T00:45:41.401Z,90.00
2017-10-27T00:48:08.845Z,90.00
2017-10-27T00:50:37.040Z,90.00
2017-10-27T00:53:04.493Z,89.80
2017-10-27T00:55:31.924Z,89.90
2017-10-27T00:58:00.141Z,89.80
2017-10-27T01:00:27.577Z,89.80
2017-10-27T01:02:55.381Z,89.80
2017-10-27T01:05:22.802Z,89.70
2017-10-27T01:07:50.228Z,89.50
2017-10-27T01:10:17.664Z,89.50
2017-10-27T01:12:45.097Z,89.50
2017-10-27T01:15:12.556Z,89.70
2017-10-27T01:17:39.989Z,89.70
2017-10-27T01:20:07.785Z,89.90
2017-10-27T01:22:35.228Z,89.90
2017-10-27T01:25:02.673Z,90.00
2017-10-27T01:27:30.140Z,90.00
2017-10-27T01:29:57.555Z,90.00
2017-10-27T01:32:25.770Z,90.10
2017-10-27T01:34:53.196Z,90.00
2017-10-27T01:37:21.412Z,90.10
2017-10-27T01:39:48.866Z,90.10
2017-10-27T01:42:16.301Z,90.40
2017-10-27T01:44:43.729Z,90.40
2017-10-27T01:47:11.454Z,90.50
2017-10-27T01:49:38.895Z,90.60
2017-10-27T01:52:06.335Z,90.70
2017-10-27T01:54:33.780Z,90.70
2017-10-27T01:57:01.220Z,90.70
2017-10-27T01:59:29.427Z,91.10
2017-10-27T02:01:56.856Z,90.70
2017-10-27T02:04:25.322Z,90.70
2017-10-27T02:06:52.749Z,90.70
2017-10-27T02:09:20.181Z,90.70
2017-10-27T02:11:47.625Z,91.00
2017-10-27T02:14:15.825Z,90.60
2017-10-27T02:16:43.273Z,90.60
2017-10-27T02:19:10.714Z,90.80
2017-10-27T02:21:38.157Z,90.50
2017-10-27T02:24:06.372Z,90.40
2017-10-27T02:26:33.805Z,90.30
2017-10-27T02:29:01.245Z,90.30
2017-10-27T02:31:29.774Z,90.30
2017-10-27T02:33:57.206Z,90.30
2017-10-27T02:36:24.641Z,90.40
2017-10-27T02:38:52.073Z,90.40
2017-10-27T02:41:19.509Z,90.40
2017-10-27T02:43:46.964Z,90.50
2017-10-27T02:46:14.389Z,90.60
2017-10-27T02:48:42.192Z,90.70
2017-10-27T02:51:09.630Z,90.90
2017-10-27T02:53:37.126Z,91.00
2017-10-27T02:56:04.564Z,91.00
2017-10-27T02:58:32.002Z,91.00
2017-10-27T03:00:59.458Z,91.00
2017-10-27T03:03:26.881Z,91.10
2017-10-27T03:05:55.090Z,91.20
2017-10-27T03:08:22.526Z,91.10
2017-10-27T03:10:50.744Z,90.90
2017-10-27T03:13:18.174Z,90.90
2017-10-27T03:15:45.966Z,90.30
2017-10-27T03:18:13.411Z,88.50
2017-10-27T03:20:40.846Z,87.30
2017-10-27T03:23:08.309Z,86.20
2017-10-27T03:25:35.730Z,85.20
2017-10-27T03:28:03.947Z,84.20
2017-10-27T03:30:31.385Z,84.80
2017-10-27T03:32:59.094Z,84.90
2017-10-27T03:35:26.549Z,84.80
2017-10-27T03:37:54.004Z,85.20
2017-10-27T03:40:21.451Z,85.60
2017-10-27T03:42:48.886Z,85.90
2017-10-27T03:45:16.378Z,86.70
2017-10-27T03:47:43.817Z,87.20
2017-10-27T03:50:11.257Z,87.70
2017-10-27T03:52:38.748Z,87.90
2017-10-27T03:55:06.306Z,88.20
2017-10-27T03:57:33.742Z,88.40
2017-10-27T04:00:01.527Z,89.10
2017-10-27T04:02:28.953Z,89.30
2017-10-27T04:04:56.388Z,89.70
2017-10-27T04:07:24.601Z,90.00
2017-10-27T04:09:52.083Z,90.00
2017-10-27T04:12:19.528Z,89.90
2017-10-27T04:14:46.970Z,89.70
2017-10-27T04:17:14.669Z,89.90
2017-10-27T04:19:42.109Z,90.10
2017-10-27T04:22:09.545Z,90.20
2017-10-27T04:24:36.995Z,90.20
2017-10-27T04:27:04.414Z,90.20
2017-10-27T04:29:32.639Z,90.40
2017-10-27T04:32:00.083Z,90.30
2017-10-27T04:34:28.289Z,90.40
2017-10-27T04:36:55.724Z,90.40
2017-10-27T04:39:23.168Z,90.40
2017-10-27T04:41:50.602Z,90.30
2017-10-27T04:44:19.110Z,90.40
2017-10-27T04:46:46.539Z,90.30
2017-10-27T04:49:14.749Z,90.60
2017-10-27T04:51:42.199Z,90.50
2017-10-27T04:54:09.621Z,90.70
2017-10-27T04:56:37.073Z,90.70
2017-10-27T04:59:04.500Z,90.60
2017-10-27T05:01:32.268Z,90.40
2017-10-27T05:03:59.701Z,90.30
2017-10-27T05:06:27.129Z,90.60
2017-10-27T05:08:55.334Z,90.00
2017-10-27T05:11:22.773Z,90.00
2017-10-27T05:13:50.972Z,90.00
2017-10-27T05:16:23.989Z,89.90
2017-10-27T05:18:57.170Z,90.00
2017-10-27T05:21:30.289Z,89.90
2017-10-27T05:24:03.370Z,89.90
2017-10-27T05:26:30.802Z,90.10
2017-10-27T05:28:58.565Z,90.20
2017-10-27T05:31:25.994Z,90.80
2017-10-27T05:33:53.427Z,90.70
2017-10-27T05:36:21.633Z,91.20
2017-10-27T05:38:49.109Z,91.20
2017-10-27T05:41:16.681Z,91.30
2017-10-27T05:43:44.130Z,91.20
2017-10-27T05:46:11.898Z,90.90
2017-10-27T05:48:39.338Z,90.70
2017-10-27T05:51:06.757Z,90.50
2017-10-27T05:53:34.973Z,88.10
2017-10-27T05:56:02.418Z,88.10
2017-10-27T05:58:29.897Z,87.40
2017-10-27T06:00:57.355Z,87.00
2017-10-27T06:03:25.122Z,87.00
2017-10-27T06:05:52.559Z,86.70
2017-10-27T06:08:19.986Z,86.70
2017-10-27T06:10:48.317Z,85.80
2017-10-27T06:13:15.754Z,85.60
2017-10-27T06:15:43.230Z,85.50
2017-10-27T06:18:10.671Z,85.20
2017-10-27T06:20:38.226Z,85.40
2017-10-27T06:23:05.640Z,85.60
2017-10-27T06:25:33.853Z,86.00
2017-10-27T06:28:01.333Z,85.90
2017-10-27T06:30:29.093Z,86.40
2017-10-27T06:32:56.522Z,86.40
2017-10-27T06:35:23.950Z,86.60
2017-10-27T06:37:51.465Z,86.80
2017-10-27T06:40:18.890Z,86.80
2017-10-27T06:42:46.333Z,87.00
2017-10-27T06:45:14.535Z,86.70
2017-10-27T06:47:42.222Z,86.70
2017-10-27T06:50:09.653Z,86.40
2017-10-27T06:52:37.084Z,86.30
2017-10-27T06:55:05.298Z,86.40
2017-10-27T06:57:32.752Z,86.30
2017-10-27T07:00:00.209Z,86.30
2017-10-27T07:02:27.617Z,86.30
2017-10-27T07:04:55.341Z,86.00
2017-10-27T07:07:22.769Z,85.80
2017-10-27T07:09:50.213Z,85.30
2017-10-27T07:12:18.437Z,84.20
2017-10-27T07:14:45.876Z,84.10
2017-10-27T07:17:13.323Z,83.50
2017-10-27T07:19:40.746Z,82.90
2017-10-27T07:22:08.960Z,80.50
2017-10-27T07:24:36.398Z,80.40
2017-10-27T07:27:03.862Z,80.30
2017-10-27T07:29:31.292Z,80.50
2017-10-27T07:31:59.750Z,80.00
2017-10-27T07:34:27.178Z,79.90
2017-10-27T07:36:54.626Z,79.80
2017-10-27T07:39:22.049Z,80.20
2017-10-27T07:41:50.253Z,80.80
2017-10-27T07:44:17.698Z,80.70
2017-10-27T07:46:45.897Z,81.00
2017-10-27T07:49:13.678Z,81.00
2017-10-27T07:51:41.109Z,81.10
2017-10-27T07:54:08.540Z,80.80
2017-10-27T07:56:36.758Z,79.40
2017-10-27T07:59:04.192Z,79.30
2017-10-27T08:01:31.978Z,79.90
2017-10-27T08:03:59.418Z,80.00
2017-10-27T08:06:26.845Z,80.70
2017-10-27T08:08:55.085Z,80.50
2017-10-27T08:11:22.522Z,80.50
2017-10-27T08:13:49.970Z,80.10
2017-10-27T08:16:24.784Z,78.90
2017-10-27T08:18:52.273Z,78.30
2017-10-27T08:21:19.710Z,78.00
2017-10-27T08:23:47.494Z,77.70
2017-10-27T08:26:14.958Z,77.30
2017-10-27T08:28:42.393Z,76.90
2017-10-27T08:31:09.866Z,75.40
2017-10-27T08:33:37.293Z,76.00
2017-10-27T08:36:04.733Z,75.90
2017-10-27T08:38:32.946Z,63.10
2017-10-27T08:41:00.393Z,62.90
2017-10-27T08:43:27.878Z,56.90
2017-10-27T08:45:55.325Z,54.20
2017-10-27T08:48:22.761Z,53.40
2017-10-27T08:50:50.194Z,52.80
2017-10-27T08:53:18.406Z,51.70
2017-10-27T08:55:45.835Z,51.60
2017-10-27T08:58:13.285Z,52.40
2017-10-27T09:00:41.485Z,55.10
2017-10-27T09:03:08.932Z,55.10
2017-10-27T09:05:36.360Z,56.10
2017-10-27T09:08:03.793Z,54.70
2017-10-27T09:10:31.246Z,55.20
2017-10-27T09:12:59.441Z,52.50
2017-10-27T09:15:26.885Z,52.50
2017-10-27T09:17:55.161Z,50.80
2017-10-27T09:20:22.589Z,49.90
2017-10-27T09:22:50.035Z,50.30
2017-10-27T09:25:17.454Z,49.30
2017-10-27T09:27:45.670Z,48.40
2017-10-27T09:30:13.097Z,48.30
2017-10-27T09:32:41.309Z,49.10
2017-10-27T09:35:08.737Z,49.10
2017-10-27T09:37:37.274Z,46.90
2017-10-27T09:40:04.705Z,46.90
2017-10-27T09:42:32.141Z,47.20
2017-10-27T09:44:59.600Z,47.80
2017-10-27T09:47:27.030Z,47.40
2017-10-27T09:49:55.244Z,44.30
2017-10-27T09:52:22.675Z,44.20
2017-10-27T09:54:50.886Z,41.60
2017-10-27T09:57:18.443Z,41.50
2017-10-27T09:59:45.882Z,41.90
2017-10-27T10:02:13.316Z,43.00
2017-10-27T10:04:41.854Z,44.00
2017-10-27T10:07:09.295Z,43.90
2017-10-27T10:09:36.709Z,43.20
2017-10-27T10:12:04.145Z,43.40
2017-10-27T10:14:31.592Z,42.90
2017-10-27T10:16:59.034Z,43.70
2017-10-27T10:19:26.510Z,45.60
2017-10-27T10:21:54.198Z,47.00
2017-10-27T10:24:23.128Z,46.90
2017-10-27T10:26:50.564Z,46.90
2017-10-27T10:29:18.778Z,46.90
2017-10-27T10:31:46.202Z,46.90
2017-10-27T10:34:13.664Z,46.50
2017-10-27T10:36:41.157Z,45.60
2017-10-27T10:39:08.617Z,45.00
2017-10-27T10:41:36.053Z,43.80
2017-10-27T10:44:03.540Z,43.90
2017-10-27T10:46:30.970Z,44.30
2017-10-27T10:48:58.749Z,44.20
2017-10-27T10:51:26.190Z,43.90
2017-10-27T10:53:53.631Z,44.20
2017-10-27T10:56:21.101Z,43.60
2017-10-27T10:58:48.521Z,41.90
2017-10-27T11:01:16.744Z,46.10
2017-10-27T11:03:46.035Z,46.10
2017-10-27T11:06:13.509Z,46.40
2017-10-27T11:08:40.968Z,46.20
2017-10-27T11:11:08.415Z,45.70
2017-10-27T11:13:35.854Z,44.80
2017-10-27T11:16:03.294Z,44.70
2017-10-27T11:18:31.512Z,45.00
2017-10-27T11:20:58.951Z,44.90
2017-10-27T11:23:26.400Z,46.00
2017-10-27T11:25:53.825Z,47.60
2017-10-27T11:28:21.265Z,49.20
2017-10-27T11:30:48.702Z,47.90
2017-10-27T11:33:16.466Z,46.60
2017-10-27T11:35:43.912Z,45.50
2017-10-27T11:38:11.345Z,44.00
2017-10-27T11:40:38.797Z,42.60
2017-10-27T11:43:06.234Z,42.90
2017-10-27T11:45:33.684Z,42.90
2017-10-27T11:48:01.114Z,42.00
2017-10-27T11:50:29.328Z,39.40
2017-10-27T11:52:56.759Z,39.30
2017-10-27T11:55:24.959Z,39.40
2017-10-27T11:57:52.381Z,39.30
2017-10-27T12:00:20.593Z,40.40
2017-10-27T12:02:48.033Z,40.30
2017-10-27T12:05:15.725Z,41.40
2017-10-27T12:07:43.156Z,43.10
2017-10-27T12:10:10.590Z,44.80
2017-10-27T12:12:38.801Z,47.70
2017-10-27T12:15:06.242Z,47.60
2017-10-27T12:17:33.690Z,47.60
2017-10-27T12:20:01.885Z,46.80
2017-10-27T12:22:29.332Z,46.70
2017-10-27T12:24:56.765Z,45.00
2017-10-27T12:27:24.990Z,43.70
2017-10-27T12:29:52.419Z,43.70
2017-10-27T12:32:19.870Z,43.10
2017-10-27T12:34:48.078Z,40.30
2017-10-27T12:37:15.514Z,40.20
2017-10-27T12:39:42.961Z,39.50
2017-10-27T12:42:10.398Z,39.30
2017-10-27T12:44:38.617Z,39.80
2017-10-27T12:47:06.050Z,39.80
2017-10-27T12:49:33.481Z,39.40
2017-10-27T12:52:01.699Z,38.80
2017-10-27T12:54:29.136Z,38.70
2017-10-27T12:56:57.345Z,37.50
2017-10-27T12:59:24.782Z,37.50
2017-10-27T13:01:52.209Z,39.10
2017-10-27T13:04:20.433Z,40.00
2017-10-27T13:06:47.870Z,39.90
2017-10-27T13:09:15.310Z,40.20
2017-10-27T13:11:42.743Z,39.80
2017-10-27T13:14:10.187Z,40.90
2017-10-27T13:16:37.609Z,40.60
2017-10-27T13:19:05.045Z,39.70
2017-10-27T13:21:32.488Z,40.30
2017-10-27T13:24:00.806Z,41.50
2017-10-27T13:26:28.232Z,41.50
2017-10-27T13:28:56.426Z,40.80
2017-10-27T13:31:23.858Z,40.80
2017-10-27T13:33:52.064Z,39.50
2017-10-27T13:36:19.506Z,39.40
2017-10-27T13:38:46.949Z,39.40
2017-10-27T13:41:14.389Z,39.10
2017-10-27T13:43:42.933Z,38.30
2017-10-27T13:46:11.132Z,39.40
2017-10-27T13:48:38.560Z,39.30
2017-10-27T13:51:06.008Z,40.90
2017-10-27T13:53:33.450Z,42.20
2017-10-27T13:56:01.139Z,43.60
2017-10-27T13:58:28.570Z,45.10
2017-10-27T14:00:55.998Z,46.00
2017-10-27T14:03:23.440Z,46.30
2017-10-27T14:05:50.870Z,46.50
2017-10-27T14:08:18.313Z,46.40
2017-10-27T14:10:45.753Z,45.60
2017-10-27T14:13:13.549Z,44.80
2017-10-27T14:15:40.985Z,44.00
2017-10-27T14:18:08.425Z,43.50
2017-10-27T14:20:35.870Z,43.10
2017-10-27T14:23:04.069Z,42.40
2017-10-27T14:25:31.765Z,42.40
2017-10-27T14:27:59.194Z,42.20
2017-10-27T14:30:26.635Z,41.00
2017-10-27T14:32:54.877Z,43.70
2017-10-27T14:35:22.309Z,43.60
2017-10-27T14:37:49.749Z,44.30
2017-10-27T14:40:17.181Z,46.40
2017-10-27T14:42:44.893Z,47.50
2017-10-27T14:45:12.431Z,47.90
2017-10-27T14:47:39.846Z,48.80
2017-10-27T14:50:08.061Z,50.00
2017-10-27T14:52:35.501Z,50.00
2017-10-27T14:55:02.955Z,50.50
2017-10-27T14:57:30.388Z,50.80
2017-10-27T14:59:58.605Z,51.80
2017-10-27T15:02:26.058Z,51.70
2017-10-27T15:04:53.841Z,52.10
2017-10-27T15:07:21.284Z,52.60
2017-10-27T15:09:48.704Z,52.80
2017-10-27T15:12:18.555Z,53.20
2017-10-27T15:14:46.109Z,53.20
2017-10-27T15:17:13.863Z,53.80
2017-10-27T15:19:42.088Z,54.30
2017-10-27T15:22:09.513Z,54.30
2017-10-27T15:24:36.949Z,54.80
2017-10-27T15:27:04.742Z,55.40
2017-10-27T15:29:32.208Z,55.70
2017-10-27T15:31:59.624Z,56.20
2017-10-27T15:34:27.146Z,56.80
2017-10-27T15:36:54.706Z,57.60
2017-10-27T15:39:22.174Z,57.90
2017-10-27T15:41:50.401Z,58.50
2017-10-27T15:44:17.846Z,59.10
2017-10-27T15:46:45.326Z,58.60
2017-10-27T15:49:13.057Z,58.70
2017-10-27T15:51:40.485Z,58.80
2017-10-27T15:54:08.406Z,58.70
2017-10-27T15:56:35.877Z,59.60
2017-10-27T15:59:03.398Z,59.40
2017-10-27T16:01:30.849Z,59.80
2017-10-27T16:03:58.343Z,60.00
2017-10-27T16:06:25.905Z,60.50
2017-10-27T16:08:53.342Z,60.90
2017-10-27T16:11:21.125Z,61.20
2017-10-27T16:13:49.326Z,62.20
2017-10-27T16:16:16.763Z,62.10
2017-10-27T16:18:44.221Z,62.90
2017-10-27T16:21:11.650Z,63.30
2017-10-27T16:23:39.086Z,63.90
2017-10-27T16:26:07.300Z,64.80
2017-10-27T16:28:34.736Z,64.80
2017-10-27T16:31:02.170Z,65.30
2017-10-27T16:33:30.625Z,65.50
2017-10-27T16:35:58.056Z,65.40
2017-10-27T16:38:25.489Z,65.60
2017-10-27T16:40:52.928Z,65.90
2017-10-27T16:43:20.359Z,66.00
2017-10-27T16:45:47.802Z,66.00
2017-10-27T16:48:15.232Z,66.10
2017-10-27T16:50:42.676Z,66.20
2017-10-27T16:53:10.106Z,66.40
2017-10-27T16:55:38.561Z,67.60
2017-10-27T16:58:05.989Z,66.80
2017-10-27T17:00:33.442Z,67.10
2017-10-27T17:03:00.881Z,68.30
2017-10-27T17:05:28.312Z,67.90
2017-10-27T17:07:56.586Z,69.60
2017-10-27T17:10:24.000Z,68.60
2017-10-27T17:12:51.456Z,68.90
2017-10-27T17:15:22.777Z,69.20
2017-10-27T17:17:51.794Z,69.50
2017-10-27T17:20:19.229Z,69.70
2017-10-27T17:22:46.645Z,69.70
2017-10-27T17:25:14.086Z,69.90
2017-10-27T17:27:41.517Z,70.00
2017-10-27T17:30:08.968Z,70.40
2017-10-27T17:32:36.394Z,70.60
2017-10-27T17:35:04.606Z,70.80
2017-10-27T17:37:32.034Z,70.80
2017-10-27T17:39:59.846Z,71.20
2017-10-27T17:42:27.275Z,70.90
2017-10-27T17:44:54.700Z,72.10
2017-10-27T17:47:22.909Z,71.60
2017-10-27T17:49:50.333Z,71.60
2017-10-27T17:52:18.543Z,72.20
2017-10-27T17:54:45.977Z,72.20
2017-10-27T17:57:14.185Z,72.20
2017-10-27T17:59:41.614Z,72.10
2017-10-27T18:02:09.316Z,72.20
2017-10-27T18:04:36.733Z,72.20
2017-10-27T18:07:04.169Z,72.30
2017-10-27T18:09:31.609Z,72.20
2017-10-27T18:11:59.041Z,72.20
2017-10-27T18:14:26.505Z,72.10
2017-10-27T18:16:53.945Z,72.10
2017-10-27T18:19:21.414Z,71.90
2017-10-27T18:21:48.821Z,71.80
2017-10-27T18:24:17.345Z,71.70
2017-10-27T18:26:44.777Z,71.60
2017-10-27T18:29:12.202Z,71.70
2017-10-27T18:31:39.653Z,71.80
2017-10-27T18:34:07.086Z,71.90
2017-10-27T18:36:34.533Z,71.90
2017-10-27T18:39:01.974Z,71.90
2017-10-27T18:41:30.429Z,72.30
2017-10-27T18:43:57.865Z,72.20
2017-10-27T18:46:25.292Z,72.40
2017-10-27T18:48:52.734Z,72.40
2017-10-27T18:51:20.165Z,72.50
2017-10-27T18:53:47.609Z,72.80
2017-10-27T18:56:15.045Z,73.60
2017-10-27T18:58:42.806Z,73.90
2017-10-27T19:01:10.234Z,72.90
2017-10-27T19:03:37.660Z,72.80
2017-10-27T19:06:05.814Z,72.90
2017-10-27T19:08:33.242Z,73.20
2017-10-27T19:11:00.725Z,73.30
2017-10-27T19:13:28.165Z,74.00
2017-10-27T19:15:55.934Z,74.50
2017-10-27T19:18:23.493Z,74.40
2017-10-27T19:20:50.934Z,74.20
2017-10-27T19:23:18.377Z,74.20
2017-10-27T19:25:45.813Z,74.10
2017-10-27T19:28:14.050Z,74.30
2017-10-27T19:30:41.483Z,74.30
2017-10-27T19:33:08.934Z,74.50
2017-10-27T19:35:36.413Z,74.50
2017-10-27T19:38:03.980Z,74.50
2017-10-27T19:40:31.537Z,74.70
2017-10-27T19:42:59.297Z,74.90
2017-10-27T19:45:26.837Z,75.00
2017-10-27T19:47:54.249Z,75.90
2017-10-27T19:50:22.454Z,77.00
2017-10-27T19:52:49.912Z,76.90
2017-10-27T19:55:17.353Z,77.20
2017-10-27T19:57:45.545Z,77.50
2017-10-27T20:00:13.352Z,77.50
2017-10-27T20:02:40.791Z,77.60
2017-10-27T20:05:08.236Z,77.30
2017-10-27T20:07:35.698Z,77.20
2017-10-27T20:10:03.162Z,76.90
2017-10-27T20:12:30.588Z,76.80
2017-10-27T20:14:58.785Z,76.60
2017-10-27T20:17:26.241Z,77.30
2017-10-27T20:19:53.729Z,76.50
2017-10-27T20:22:21.273Z,76.50
2017-10-27T20:24:48.704Z,76.60
2017-10-27T20:27:16.501Z,76.50
2017-10-27T20:29:43.935Z,76.50
2017-10-27T20:32:11.364Z,76.40
2017-10-27T20:34:39.581Z,76.30
2017-10-27T20:37:07.005Z,76.20
2017-10-27T20:39:34.462Z,76.20
2017-10-27T20:42:02.658Z,76.30
2017-10-27T20:44:30.445Z,76.20
2017-10-27T20:46:57.881Z,76.40
2017-10-27T20:49:25.308Z,76.40
2017-10-27T20:51:53.509Z,76.80
2017-10-27T20:54:20.945Z,76.70
2017-10-27T20:56:49.185Z,76.70
2017-10-27T20:59:16.614Z,76.70
2017-10-27T21:01:44.390Z,76.70
2017-10-27T21:04:11.846Z,76.70
2017-10-27T21:06:39.285Z,76.70
2017-10-27T21:09:06.873Z,76.80
2017-10-27T21:11:34.303Z,76.90
2017-10-27T21:14:01.757Z,77.00
2017-10-27T21:16:29.202Z,77.00
2017-10-27T21:18:56.658Z,77.00
2017-10-27T21:21:24.242Z,77.10
2017-10-27T21:23:51.673Z,77.10
2017-10-27T21:26:19.162Z,77.20
2017-10-27T21:28:46.925Z,77.30
2017-10-27T21:31:14.362Z,77.50
2017-10-27T21:33:41.853Z,77.50
2017-10-27T21:36:09.300Z,77.70
2017-10-27T21:38:36.763Z,77.70
2017-10-27T21:41:04.331Z,77.70
2017-10-27T21:43:31.750Z,77.90
2017-10-27T21:45:59.538Z,77.90
2017-10-27T21:48:27.081Z,78.00
2017-10-27T21:50:54.502Z,78.00
2017-10-27T21:53:22.716Z,77.80
2017-10-27T21:55:50.183Z,77.70
2017-10-27T21:58:17.617Z,77.70
2017-10-27T22:00:45.054Z,77.50
2017-10-27T22:03:13.529Z,77.60
2017-10-27T22:05:41.726Z,77.70
2017-10-27T22:08:09.164Z,77.60
2017-10-27T22:10:37.496Z,79.00
2017-10-27T22:13:04.925Z,79.00
2017-10-27T22:15:32.362Z,78.90
2017-10-27T22:18:00.585Z,79.30
2017-10-27T22:20:28.021Z,79.20
2017-10-27T22:22:55.468Z,79.40
2017-10-27T22:25:22.914Z,79.80
2017-10-27T22:27:50.346Z,80.00
2017-10-27T22:30:18.081Z,80.20
2017-10-27T22:32:45.513Z,80.60
2017-10-27T22:35:12.941Z,80.40
2017-10-27T22:37:41.216Z,80.50
2017-10-27T22:40:09.448Z,80.70
2017-10-27T22:42:36.995Z,80.30
2017-10-27T22:45:04.459Z,80.40
2017-10-27T22:47:32.220Z,80.20
2017-10-27T22:49:59.775Z,80.70
2017-10-27T22:52:27.181Z,81.10
2017-10-27T22:54:55.416Z,81.00
2017-10-27T22:57:22.873Z,81.00
2017-10-27T22:59:50.326Z,81.00
2017-10-27T23:02:17.763Z,80.60
2017-10-27T23:04:45.549Z,80.70
2017-10-27T23:07:12.974Z,80.50
2017-10-27T23:09:40.394Z,80.90
2017-10-27T23:12:07.837Z,80.80
2017-10-27T23:14:36.109Z,80.70
2017-10-27T23:17:03.657Z,80.60
2017-10-27T23:19:31.077Z,80.80
2017-10-27T23:21:59.300Z,80.60
2017-10-27T23:24:26.731Z,80.50
2017-10-27T23:26:54.513Z,81.30
2017-10-27T23:29:21.945Z,80.90
2017-10-27T23:31:49.368Z,81.10
2017-10-27T23:34:17.586Z,82.10
2017-10-27T23:36:45.005Z,82.00
2017-10-27T23:39:13.337Z,82.20
2017-10-27T23:41:40.757Z,82.20
2017-10-27T23:44:08.210Z,82.30
2017-10-27T23:46:35.637Z,82.10
2017-10-27T23:49:04.901Z,82.10
2017-10-27T23:51:32.329Z,82.10
2017-10-27T23:53:59.757Z,82.10
2017-10-27T23:56:27.201Z,82.10
2017-10-27T23:58:54.641Z,82.30
